Allenton, Missouri
Current Conditions -  °F | °C
As of 8:54 PM on Sunday 23 Nov 2014 (Local Time) from KSUS Reporting Station
Haze Haze  
Wind Chill: 12°   Ceiling: 700
Heat Index: 12°   Visibility: 4mi
Dew Point: 12°   Wind: 3mph
Humidity: 100%   Direction: 260°W
Pressure: 29.25"   Gusts: NA
Location:  38.5°N, 90.68°W
Report Text: KSUS 240254Z 26003KT 4SM BR OVC007 12/12 A2925 RMK AO2 SLP902 60002 T01170117 56015
Loading
Personal Weather Stations






























Interactive Weather Map New forecast layout! Learn more

10-Day Weather Forecast

Advertisements
Track Severe Weather on mobile